createdAt,value
2019-05-15T00:00:42.231Z,96907.63
2019-05-15T00:03:10.703Z,96904.86
2019-05-15T00:05:39.448Z,96901.73
2019-05-15T00:08:09.253Z,96900.58
2019-05-15T00:10:39.004Z,96897.88
2019-05-15T00:13:09.211Z,96898.00
2019-05-15T00:15:40.143Z,96895.01
2019-05-15T00:18:08.961Z,96892.05
2019-05-15T00:20:39.481Z,96886.41
2019-05-15T00:23:08.538Z,96884.47
2019-05-15T00:25:39.423Z,96881.77
2019-05-15T00:28:09.405Z,96877.95
2019-05-15T00:30:38.687Z,96879.14
2019-05-15T00:33:08.958Z,96873.72
2019-05-15T00:35:39.259Z,96871.64
2019-05-15T00:38:09.369Z,96869.52
2019-05-15T00:40:39.113Z,96860.92
2019-05-15T00:43:08.774Z,96859.41
2019-05-15T00:45:38.605Z,96863.28
2019-05-15T00:48:08.789Z,96864.80
2019-05-15T00:50:39.412Z,96855.53
2019-05-15T00:53:08.696Z,96857.60
2019-05-15T00:55:38.756Z,96849.75
2019-05-15T00:58:08.708Z,96848.65
2019-05-15T01:00:40.450Z,96849.73
2019-05-15T01:03:09.034Z,96849.31
2019-05-15T01:05:38.725Z,96844.59
2019-05-15T01:08:08.197Z,96838.19
2019-05-15T01:10:38.597Z,96831.53
2019-05-15T01:13:08.458Z,96835.61
2019-05-15T01:15:38.745Z,96830.92
2019-05-15T01:18:09.394Z,96831.95
2019-05-15T01:20:39.079Z,96826.84
2019-05-15T01:23:08.803Z,96827.77
2019-05-15T01:25:38.997Z,96821.56
2019-05-15T01:28:09.346Z,96817.86
2019-05-15T01:30:39.360Z,96816.67
2019-05-15T01:33:08.466Z,96815.03
2019-05-15T01:35:38.367Z,96815.11
2019-05-15T01:38:08.152Z,96808.41
2019-05-15T01:40:38.589Z,96813.30
2019-05-15T01:43:09.162Z,96803.77
2019-05-15T01:45:39.345Z,96805.99
2019-05-15T01:48:08.262Z,96799.30
2019-05-15T01:50:38.766Z,96804.67
2019-05-15T01:53:08.174Z,96800.04
2019-05-15T01:55:39.295Z,96795.88
2019-05-15T01:58:09.186Z,96800.52
2019-05-15T02:00:39.103Z,96798.52
2019-05-15T02:03:09.693Z,96797.94
2019-05-15T02:05:39.019Z,96802.58
2019-05-15T02:08:08.249Z,96797.66
2019-05-15T02:10:39.163Z,96798.36
2019-05-15T02:13:08.538Z,96792.64
2019-05-15T02:15:39.507Z,96802.25
2019-05-15T02:18:08.404Z,96792.23
2019-05-15T02:20:38.881Z,96796.30
2019-05-15T02:23:11.698Z,96792.28
2019-05-15T02:25:38.772Z,96786.81
2019-05-15T02:28:09.467Z,96792.31
2019-05-15T02:30:40.157Z,96784.56
2019-05-15T02:33:10.564Z,96784.05
2019-05-15T02:35:39.342Z,96779.00
2019-05-15T02:38:10.106Z,96783.90
2019-05-15T02:40:40.548Z,96784.27
2019-05-15T02:43:10.056Z,96785.70
2019-05-15T02:45:41.950Z,96783.81
2019-05-15T02:48:09.193Z,96786.57
2019-05-15T02:50:39.106Z,96785.54
2019-05-15T02:53:09.941Z,96779.02
2019-05-15T02:55:40.262Z,96779.84
2019-05-15T02:58:09.978Z,96776.83
2019-05-15T03:00:47.453Z,96781.93
2019-05-15T03:03:09.591Z,96783.25
2019-05-15T03:05:40.689Z,96780.20
2019-05-15T03:08:09.514Z,96780.53
2019-05-15T03:10:40.407Z,96781.59
2019-05-15T03:13:09.728Z,96777.29
2019-05-15T03:15:40.401Z,96770.59
2019-05-15T03:18:09.854Z,96769.28
2019-05-15T03:20:39.298Z,96768.17
2019-05-15T03:23:09.602Z,96762.78
2019-05-15T03:25:40.231Z,96765.70
2019-05-15T03:28:10.427Z,96765.12
2019-05-15T03:31:07.214Z,96760.86
2019-05-15T03:33:16.187Z,96760.32
2019-05-15T03:35:43.249Z,96759.75
2019-05-15T03:38:09.744Z,96756.63
2019-05-15T03:40:39.627Z,96755.32
2019-05-15T03:43:09.054Z,96755.40
2019-05-15T03:45:40.434Z,96757.53
2019-05-15T03:48:09.393Z,96756.38
2019-05-15T03:50:40.320Z,96759.01
2019-05-15T03:53:10.289Z,96750.76
2019-05-15T03:55:40.379Z,96758.52
2019-05-15T03:58:10.075Z,96758.44
2019-05-15T04:00:39.790Z,96752.33
2019-05-15T04:03:10.683Z,96757.08
2019-05-15T04:05:39.184Z,96753.22
2019-05-15T04:08:10.975Z,96753.84
2019-05-15T04:10:39.963Z,96746.98
2019-05-15T04:13:09.424Z,96744.84
2019-05-15T04:15:39.547Z,96744.02
2019-05-15T04:18:09.391Z,96744.72
2019-05-15T04:20:40.701Z,96745.55
2019-05-15T04:23:10.331Z,96743.16
2019-05-15T04:25:39.483Z,96739.14
2019-05-15T04:28:11.149Z,96737.98
2019-05-15T04:30:39.621Z,96734.62
2019-05-15T04:33:09.456Z,96740.69
2019-05-15T04:35:40.262Z,96740.41
2019-05-15T04:38:09.346Z,96734.95
2019-05-15T04:40:39.662Z,96736.88
2019-05-15T04:43:10.454Z,96740.13
2019-05-15T04:45:39.526Z,96742.70
2019-05-15T04:48:10.024Z,96741.47
2019-05-15T04:50:39.850Z,96741.11
2019-05-15T04:53:10.609Z,96736.96
2019-05-15T04:55:40.419Z,96739.37
2019-05-15T04:58:09.986Z,96727.11
2019-05-15T05:00:49.618Z,96729.48
2019-05-15T05:03:19.779Z,96732.58
2019-05-15T05:05:49.810Z,96731.18
2019-05-15T05:08:20.075Z,96733.47
2019-05-15T05:10:48.918Z,96729.08
2019-05-15T05:13:19.744Z,96727.28
2019-05-15T05:15:50.104Z,96733.23
2019-05-15T05:18:19.014Z,96731.41
2019-05-15T05:20:48.425Z,96733.55
2019-05-15T05:23:19.148Z,96728.99
2019-05-15T05:25:49.135Z,96724.69
2019-05-15T05:28:18.489Z,96729.20
2019-05-15T05:30:48.349Z,96729.20
2019-05-15T05:33:17.871Z,96725.13
2019-05-15T05:35:48.465Z,96731.05
2019-05-15T05:38:19.083Z,96728.83
2019-05-15T05:40:49.486Z,96730.61
2019-05-15T05:43:18.998Z,96726.82
2019-05-15T05:45:49.279Z,96729.08
2019-05-15T05:48:18.664Z,96726.33
2019-05-15T05:50:49.540Z,96732.00
2019-05-15T05:53:17.709Z,96736.67
2019-05-15T05:55:48.684Z,96730.80
2019-05-15T05:58:19.363Z,96733.67
2019-05-15T06:00:48.900Z,96731.09
2019-05-15T06:03:19.595Z,96736.84
2019-05-15T06:05:49.542Z,96733.84
2019-05-15T06:08:19.465Z,96736.48
2019-05-15T06:10:49.473Z,96735.24
2019-05-15T06:13:18.761Z,96740.38
2019-05-15T06:15:48.909Z,96737.25
2019-05-15T06:18:19.698Z,96742.88
2019-05-15T06:20:49.344Z,96743.58
2019-05-15T06:23:23.314Z,96744.48
2019-05-15T06:25:49.108Z,96748.38
2019-05-15T06:28:19.672Z,96749.88
2019-05-15T06:30:48.611Z,96752.09
2019-05-15T06:33:18.695Z,96758.83
2019-05-15T06:35:49.041Z,96754.50
2019-05-15T06:38:19.695Z,96753.39
2019-05-15T06:40:49.378Z,96760.53
2019-05-15T06:43:19.190Z,96757.28
2019-05-15T06:45:48.850Z,96761.56
2019-05-15T06:48:18.328Z,96763.66
2019-05-15T06:50:49.135Z,96763.78
2019-05-15T06:53:19.263Z,96755.77
2019-05-15T06:55:48.619Z,96759.78
2019-05-15T06:58:19.126Z,96759.63
2019-05-15T07:00:48.740Z,96762.62
2019-05-15T07:03:24.910Z,96765.94
2019-05-15T07:05:50.782Z,96758.18
2019-05-15T07:08:18.473Z,96758.88
2019-05-15T07:10:48.670Z,96760.50
2019-05-15T07:13:18.242Z,96761.76
2019-05-15T07:15:49.638Z,96761.76
2019-05-15T07:18:19.945Z,96756.34
2019-05-15T07:20:48.885Z,96760.98
2019-05-15T07:23:18.799Z,96759.33
2019-05-15T07:25:49.654Z,96754.89
2019-05-15T07:28:18.172Z,96751.64
2019-05-15T07:30:49.403Z,96752.56
2019-05-15T07:33:28.082Z,96759.08
2019-05-15T07:35:49.213Z,96754.71
2019-05-15T07:38:18.660Z,96745.83
2019-05-15T07:40:55.459Z,96754.16
2019-05-15T07:43:18.223Z,96752.64
2019-05-15T07:45:53.558Z,96757.84
2019-05-15T07:48:18.872Z,96756.59
2019-05-15T07:50:49.827Z,96762.13
2019-05-15T07:53:19.858Z,96756.78
2019-05-15T07:55:50.009Z,96756.92
2019-05-15T07:58:21.424Z,96759.48
2019-05-15T08:00:49.268Z,96756.03
2019-05-15T08:03:18.573Z,96760.05
2019-05-15T08:05:56.061Z,96756.85
2019-05-15T08:08:18.495Z,96756.98
2019-05-15T08:10:48.888Z,96758.04
2019-05-15T08:13:18.472Z,96759.23
2019-05-15T08:15:48.655Z,96758.23
2019-05-15T08:18:18.136Z,96755.08
2019-05-15T08:20:49.053Z,96757.84
2019-05-15T08:23:19.293Z,96757.55
2019-05-15T08:25:48.515Z,96758.60
2019-05-15T08:28:19.174Z,96759.55
2019-05-15T08:30:49.484Z,96764.55
2019-05-15T08:33:18.850Z,96761.03
2019-05-15T08:35:51.192Z,96760.80
2019-05-15T08:38:18.376Z,96759.65
2019-05-15T08:40:48.960Z,96761.36
2019-05-15T08:43:18.361Z,96759.97
2019-05-15T08:45:49.445Z,96765.44
2019-05-15T08:48:18.519Z,96761.98
2019-05-15T08:50:48.860Z,96754.51
2019-05-15T08:53:19.301Z,96760.67
2019-05-15T08:55:48.393Z,96758.80
2019-05-15T08:58:20.095Z,96756.72
2019-05-15T09:00:51.839Z,96762.17
2019-05-15T09:03:18.297Z,96757.33
2019-05-15T09:05:48.489Z,96758.84
2019-05-15T09:08:19.515Z,96758.38
2019-05-15T09:10:49.868Z,96755.66
2019-05-15T09:13:19.006Z,96748.83
2019-05-15T09:15:48.395Z,96750.98
2019-05-15T09:18:19.970Z,96750.91
2019-05-15T09:20:49.250Z,96749.86
2019-05-15T09:23:19.461Z,96748.18
2019-05-15T09:25:49.470Z,96750.68
2019-05-15T09:28:18.877Z,96742.05
2019-05-15T09:30:48.521Z,96738.47
2019-05-15T09:33:19.613Z,96737.42
2019-05-15T09:35:49.257Z,96739.81
2019-05-15T09:38:18.403Z,96737.00
2019-05-15T09:40:50.465Z,96734.09
2019-05-15T09:43:18.193Z,96733.96
2019-05-15T09:45:49.282Z,96730.28
2019-05-15T09:48:19.751Z,96725.75
2019-05-15T09:50:49.265Z,96727.29
2019-05-15T09:53:18.794Z,96736.56
2019-05-15T09:55:49.333Z,96729.34
2019-05-15T09:58:20.222Z,96723.03
2019-05-15T10:00:52.222Z,96724.84
2019-05-15T10:03:19.220Z,96733.34
2019-05-15T10:05:48.259Z,96729.67
2019-05-15T10:08:16.882Z,96731.10
2019-05-15T10:10:45.267Z,96729.92
2019-05-15T10:13:13.668Z,96731.56
2019-05-15T10:15:42.337Z,96726.44
2019-05-15T10:18:10.743Z,96726.84
2019-05-15T10:20:39.208Z,96730.02
2019-05-15T10:23:08.786Z,96731.78
2019-05-15T10:25:38.886Z,96727.15
2019-05-15T10:28:09.737Z,96730.55
2019-05-15T10:30:39.489Z,96722.34
2019-05-15T10:33:08.637Z,96724.52
2019-05-15T10:35:39.377Z,96721.08
2019-05-15T10:38:08.779Z,96725.25
2019-05-15T10:40:41.097Z,96722.84
2019-05-15T10:43:09.147Z,96720.52
2019-05-15T10:45:42.494Z,96719.25
2019-05-15T10:48:09.446Z,96720.27
2019-05-15T10:50:38.885Z,96712.27
2019-05-15T10:53:10.909Z,96715.24
2019-05-15T10:55:39.426Z,96714.20
2019-05-15T10:58:14.097Z,96710.62
2019-05-15T11:00:38.342Z,96710.27
2019-05-15T11:03:08.920Z,96707.77
2019-05-15T11:05:44.967Z,96713.09
2019-05-15T11:08:08.349Z,96710.25
2019-05-15T11:10:38.610Z,96711.47
2019-05-15T11:13:08.941Z,96719.14
2019-05-15T11:15:40.448Z,96719.56
2019-05-15T11:18:09.287Z,96720.98
2019-05-15T11:20:40.906Z,96718.52
2019-05-15T11:23:09.709Z,96719.52
2019-05-15T11:25:38.277Z,96718.75
2019-05-15T11:28:08.237Z,96722.16
2019-05-15T11:30:39.381Z,96723.61
2019-05-15T11:33:09.461Z,96725.79
2019-05-15T11:35:40.729Z,96725.57
2019-05-15T11:38:09.990Z,96734.34
2019-05-15T11:40:38.920Z,96730.02
2019-05-15T11:43:08.507Z,96725.88
2019-05-15T11:45:39.036Z,96727.21
2019-05-15T11:48:08.992Z,96727.34
2019-05-15T11:50:40.063Z,96724.27
2019-05-15T11:53:08.679Z,96719.84
2019-05-15T11:55:38.701Z,96721.11
2019-05-15T11:58:09.368Z,96715.48
2019-05-15T12:00:38.383Z,96716.85
2019-05-15T12:03:08.956Z,96715.02
2019-05-15T12:05:38.604Z,96721.20
2019-05-15T12:08:09.015Z,96724.06
2019-05-15T12:10:38.934Z,96721.84
2019-05-15T12:13:09.811Z,96718.80
2019-05-15T12:15:38.838Z,96723.89
2019-05-15T12:18:08.796Z,96723.12
2019-05-15T12:20:39.238Z,96719.62
2019-05-15T12:23:08.973Z,96714.76
2019-05-15T12:25:39.612Z,96709.75
2019-05-15T12:28:09.618Z,96710.11
2019-05-15T12:30:40.192Z,96709.19
2019-05-15T12:35:40.035Z,96715.77
2019-05-15T12:38:10.322Z,96712.39
2019-05-15T13:00:40.587Z,96698.69
2019-05-15T13:03:09.272Z,96702.60
2019-05-15T13:05:39.283Z,96705.23
2019-05-15T13:08:08.458Z,96702.42
2019-05-15T13:10:38.513Z,96702.46
2019-05-15T13:13:09.543Z,96697.90
2019-05-15T13:15:41.120Z,96698.19
2019-05-15T13:18:13.857Z,96693.23
2019-05-15T13:20:38.441Z,96693.08
2019-05-15T13:23:08.513Z,96689.23
2019-05-15T13:25:39.575Z,96689.19
2019-05-15T13:28:08.895Z,96690.83
2019-05-15T13:30:40.830Z,96691.19
2019-05-15T13:33:09.830Z,96691.23
2019-05-15T13:35:38.154Z,96688.30
2019-05-15T13:38:09.569Z,96685.42
2019-05-15T13:40:41.047Z,96684.98
2019-05-15T13:43:08.241Z,96689.45
2019-05-15T13:45:38.672Z,96686.37
2019-05-15T13:48:08.878Z,96689.08
2019-05-15T13:50:40.390Z,96694.86
2019-05-15T13:53:10.726Z,96693.22
2019-05-15T13:55:42.323Z,96688.97
2019-05-15T13:58:09.066Z,96687.36
2019-05-15T14:00:38.913Z,96678.47
2019-05-15T14:03:09.040Z,96676.47
2019-05-15T14:05:38.436Z,96680.79
2019-05-15T14:08:07.071Z,96675.68
2019-05-15T14:10:38.374Z,96672.89
2019-05-15T14:13:05.913Z,96675.68
2019-05-15T14:15:34.400Z,96669.08
2019-05-15T14:18:02.791Z,96664.17
2019-05-15T14:20:31.259Z,96656.28
2019-05-15T14:22:59.702Z,96656.63
2019-05-15T14:25:28.189Z,96657.80
2019-05-15T14:27:59.130Z,96649.38
2019-05-15T14:30:29.313Z,96648.27
2019-05-15T14:32:59.800Z,96644.62
2019-05-15T14:35:28.056Z,96648.66
2019-05-15T14:38:05.515Z,96648.70
2019-05-15T14:40:26.716Z,96644.43
2019-05-15T14:42:55.112Z,96650.09
2019-05-15T14:45:24.389Z,96647.45
2019-05-15T14:47:52.801Z,96648.25
2019-05-15T14:50:21.560Z,96650.89
2019-05-15T14:52:50.552Z,96652.41
2019-05-15T14:55:18.951Z,96651.58
2019-05-15T14:57:48.771Z,96653.75
2019-05-15T15:00:19.846Z,96649.95
2019-05-15T15:02:49.412Z,96641.55
2019-05-15T15:05:21.589Z,96646.18
2019-05-15T15:07:49.204Z,96645.58
2019-05-15T15:10:20.053Z,96635.34
2019-05-15T15:12:49.992Z,96634.38
2019-05-15T15:15:18.986Z,96631.91
2019-05-15T15:17:49.310Z,96627.16
2019-05-15T15:20:17.995Z,96622.53
2019-05-15T15:22:48.486Z,96624.09
2019-05-15T15:25:16.694Z,96629.23
2019-05-15T15:27:45.082Z,96629.23
2019-05-15T15:30:15.905Z,96632.05
2019-05-15T15:32:44.072Z,96631.73
2019-05-15T15:35:13.236Z,96631.38
2019-05-15T15:37:41.745Z,96630.88
2019-05-15T15:40:10.383Z,96628.38
2019-05-15T15:42:39.710Z,96632.53
2019-05-15T15:45:09.503Z,96625.88
2019-05-15T15:47:38.955Z,96627.14
2019-05-15T15:50:09.508Z,96625.50
2019-05-15T15:52:38.835Z,96621.03
2019-05-15T15:55:08.813Z,96626.33
2019-05-15T15:57:39.581Z,96624.35
2019-05-15T16:00:11.468Z,96622.20
2019-05-15T16:02:41.009Z,96620.88
2019-05-15T16:05:10.562Z,96620.68
2019-05-15T16:07:43.362Z,96625.15
2019-05-15T16:10:31.953Z,96622.84
2019-05-15T16:13:00.512Z,96622.48
2019-05-15T16:15:29.204Z,96623.64
2019-05-15T16:17:59.455Z,96623.44
2019-05-15T16:20:28.635Z,96620.48
2019-05-15T16:22:59.182Z,96618.48
2019-05-15T16:25:28.846Z,96620.62
2019-05-15T16:27:57.866Z,96620.48
2019-05-15T16:30:28.209Z,96619.82
2019-05-15T16:32:58.521Z,96612.20
2019-05-15T16:35:28.815Z,96615.64
2019-05-15T16:37:58.429Z,96614.81
2019-05-15T16:40:28.816Z,96613.14
2019-05-15T16:42:57.977Z,96618.61
2019-05-15T16:45:28.689Z,96610.48
2019-05-15T16:47:58.688Z,96610.31
2019-05-15T16:50:28.615Z,96609.64
2019-05-15T16:52:58.463Z,96610.95
2019-05-15T16:55:28.768Z,96605.64
2019-05-15T16:57:58.508Z,96603.30
2019-05-15T17:00:29.222Z,96605.11
2019-05-15T17:03:08.919Z,96616.33
2019-05-15T17:05:29.141Z,96616.33
2019-05-15T17:07:58.413Z,96610.19
2019-05-15T17:10:28.139Z,96611.19
2019-05-15T17:12:58.327Z,96608.55
2019-05-15T17:15:27.963Z,96608.05
2019-05-15T17:17:58.249Z,96602.25
2019-05-15T17:20:28.487Z,96606.86
2019-05-15T17:22:57.933Z,96601.72
2019-05-15T17:25:26.434Z,96606.34
2019-05-15T17:27:54.861Z,96607.64
2019-05-15T17:30:23.399Z,96610.25
2019-05-15T17:32:52.081Z,96610.41
2019-05-15T17:35:20.497Z,96614.20
2019-05-15T17:37:48.916Z,96611.53
2019-05-15T17:40:17.880Z,96613.82
2019-05-15T17:42:48.979Z,96606.40
2019-05-15T17:45:19.135Z,96610.51
2019-05-15T17:47:48.823Z,96612.62
2019-05-15T17:50:19.077Z,96611.63
2019-05-15T17:52:49.109Z,96608.14
2019-05-15T17:55:18.444Z,96608.44
2019-05-15T17:57:56.505Z,96605.62
2019-05-15T18:00:19.145Z,96603.45
2019-05-15T18:02:48.644Z,96600.81
2019-05-15T18:05:18.876Z,96604.30
2019-05-15T18:07:48.855Z,96604.77
2019-05-15T18:10:18.843Z,96611.38
2019-05-15T18:12:48.857Z,96611.23
2019-05-15T18:15:18.612Z,96615.34
2019-05-15T18:17:48.214Z,96614.86
2019-05-15T18:20:23.088Z,96615.02
2019-05-15T18:22:51.478Z,96614.86
2019-05-15T18:25:19.874Z,96613.02
2019-05-15T18:27:48.430Z,96610.52
2019-05-15T18:30:18.348Z,96610.82
2019-05-15T18:32:48.844Z,96608.68
2019-05-15T18:35:18.772Z,96612.78
2019-05-15T18:37:48.315Z,96609.62
2019-05-15T18:40:18.984Z,96612.90
2019-05-15T18:42:49.578Z,96611.55
2019-05-15T18:45:18.239Z,96616.01
2019-05-15T18:47:48.099Z,96607.92
2019-05-15T18:50:17.462Z,96607.23
2019-05-15T18:52:48.656Z,96612.98
2019-05-15T18:55:18.273Z,96611.84
2019-05-15T18:57:48.490Z,96609.67
2019-05-15T19:00:18.607Z,96607.36
2019-05-15T19:02:46.972Z,96611.95
2019-05-15T19:05:18.571Z,96616.06
2019-05-15T19:07:48.722Z,96616.70
2019-05-15T19:10:20.093Z,96619.20
2019-05-15T19:12:48.627Z,96621.66
2019-05-15T19:15:18.957Z,96624.30
2019-05-15T19:17:47.823Z,96623.16
2019-05-15T19:20:18.947Z,96628.08
2019-05-15T19:22:48.217Z,96629.86
2019-05-15T19:25:17.982Z,96627.52
2019-05-15T19:27:46.776Z,96623.23
2019-05-15T19:30:15.587Z,96626.80
2019-05-15T19:32:43.981Z,96630.22
2019-05-15T19:35:13.047Z,96632.00
2019-05-15T19:37:41.718Z,96632.75
2019-05-15T19:40:10.756Z,96634.20
2019-05-15T19:42:39.413Z,96633.53
2019-05-15T19:45:08.923Z,96635.52
2019-05-15T19:47:38.814Z,96637.98
2019-05-15T19:50:09.834Z,96641.44
2019-05-15T19:52:38.494Z,96637.48
2019-05-15T19:55:08.931Z,96636.48
2019-05-15T19:57:39.059Z,96633.03
2019-05-15T20:00:08.977Z,96631.57
2019-05-15T20:02:38.133Z,96630.75
2019-05-15T20:05:09.421Z,96631.53
2019-05-15T20:07:38.919Z,96637.73
2019-05-15T20:10:08.591Z,96634.73
2019-05-15T20:12:39.032Z,96640.44
2019-05-15T20:15:09.213Z,96647.09
2019-05-15T20:17:38.607Z,96647.00
2019-05-15T20:20:08.923Z,96640.45
2019-05-15T20:22:39.634Z,96639.66
2019-05-15T20:25:08.278Z,96642.02
2019-05-15T20:27:39.087Z,96637.42
2019-05-15T20:30:08.731Z,96634.82
2019-05-15T20:32:38.642Z,96632.72
2019-05-15T20:35:08.845Z,96621.17
2019-05-15T20:37:38.965Z,96623.87
2019-05-15T20:40:09.499Z,96622.59
2019-05-15T20:42:38.586Z,96622.88
2019-05-15T20:45:12.143Z,96619.27
2019-05-15T20:47:39.159Z,96621.06
2019-05-15T20:50:08.897Z,96624.70
2019-05-15T20:52:39.443Z,96617.28
2019-05-15T20:55:08.498Z,96616.78
2019-05-15T20:57:40.269Z,96613.64
2019-05-15T21:00:09.093Z,96617.28
2019-05-15T21:02:37.966Z,96610.19
2019-05-15T21:05:08.754Z,96616.28
2019-05-15T21:07:42.131Z,96609.83
2019-05-15T21:10:08.570Z,96609.01
2019-05-15T21:12:41.229Z,96611.15
2019-05-15T21:15:09.218Z,96607.41
2019-05-15T21:17:39.500Z,96602.45
2019-05-15T21:20:09.415Z,96606.55
2019-05-15T21:22:40.177Z,96607.41
2019-05-15T21:25:10.784Z,96604.09
2019-05-15T21:27:42.151Z,96601.77
2019-05-15T21:30:10.109Z,96599.63
2019-05-15T21:32:38.549Z,96603.23
2019-05-15T21:35:09.076Z,96597.95
2019-05-15T21:37:38.943Z,96601.77
2019-05-15T21:40:08.740Z,96602.59
2019-05-15T21:42:39.052Z,96598.64
2019-05-15T21:45:14.341Z,96597.00
2019-05-15T21:47:39.931Z,96593.33
2019-05-15T21:50:08.889Z,96592.83
2019-05-15T21:52:38.979Z,96592.83
2019-05-15T21:55:09.503Z,96591.19
2019-05-15T21:57:40.361Z,96588.20
2019-05-15T22:00:11.590Z,96594.11
2019-05-15T22:02:40.127Z,96586.95
2019-05-15T22:05:08.936Z,96577.83
2019-05-15T22:07:38.829Z,96582.42
2019-05-15T22:10:10.815Z,96576.16
2019-05-15T22:12:38.526Z,96573.84
2019-05-15T22:15:08.958Z,96571.70
2019-05-15T22:17:38.839Z,96570.87
2019-05-15T22:20:09.058Z,96577.47
2019-05-15T22:22:37.533Z,96566.56
2019-05-15T22:25:11.214Z,96566.89
2019-05-15T22:27:39.562Z,96561.40
2019-05-15T22:30:09.182Z,96559.27
2019-05-15T22:32:38.666Z,96554.98
2019-05-15T22:35:13.461Z,96551.67
2019-05-15T22:37:41.591Z,96543.88
2019-05-15T22:40:10.023Z,96542.20
2019-05-15T22:42:39.131Z,96538.74
2019-05-15T22:45:11.798Z,96538.06
2019-05-15T22:47:39.656Z,96534.25
2019-05-15T22:50:08.791Z,96529.48
2019-05-15T22:52:38.988Z,96526.84
2019-05-15T22:55:08.849Z,96527.48
2019-05-15T22:57:38.871Z,96520.54
2019-05-15T23:00:08.767Z,96516.59
2019-05-15T23:02:37.329Z,96521.22
2019-05-15T23:05:23.203Z,96517.62
2019-05-15T23:07:38.915Z,96520.75
2019-05-15T23:10:09.046Z,96512.13
2019-05-15T23:12:38.222Z,96514.77
2019-05-15T23:15:08.577Z,96501.44
2019-05-15T23:17:38.291Z,96505.40
2019-05-15T23:20:09.253Z,96505.72
2019-05-15T23:22:38.575Z,96495.46
2019-05-15T23:25:07.902Z,96492.97
2019-05-15T23:27:38.234Z,96487.02
2019-05-15T23:30:09.040Z,96482.53
2019-05-15T23:32:39.106Z,96475.27
2019-05-15T23:35:08.396Z,96475.45
2019-05-15T23:37:39.203Z,96472.28
2019-05-15T23:40:09.011Z,96473.24
2019-05-15T23:42:39.029Z,96475.05
2019-05-15T23:45:08.233Z,96466.12
2019-05-15T23:47:38.359Z,96464.98
2019-05-15T23:50:07.695Z,96464.45
2019-05-15T23:52:38.303Z,96459.28
2019-05-15T23:55:08.658Z,96460.45
2019-05-15T23:57:39.231Z,96449.56
